Itaporanga d'Ajuda, Brazil
Current Conditions -  °F | °C
As of 10:00 AM on Monday 22 Dec 2014 (Local Time) from SBAR Reporting Station
Scattered Clouds Scattered Clouds  
Wind Chill: 82°   Ceiling: Unl
Heat Index: 86°   Visibility: 6mi
Dew Point: 70°   Wind: 10mph
Humidity: 66%   Direction: 120°ESE
Pressure: 29.97"   Gusts: NA
Location:  11°S, 37.31°W
Report Text: SBAR 221300Z 12009KT 9999 SCT017 SCT080 28/21 Q1015
Loading
Personal Weather Stations






























Interactive Weather Map New forecast layout! Learn more

10-Day Weather Forecast

Advertisements
Track Severe Weather on mobile